createdAt,value
2019-02-25T00:00:28.488Z,2.93
2019-02-25T00:02:55.923Z,2.79
2019-02-25T00:05:23.288Z,2.64
2019-02-25T00:07:50.697Z,2.58
2019-02-25T00:10:18.048Z,2.49
2019-02-25T00:12:45.473Z,2.47
2019-02-25T00:15:12.894Z,2.51
2019-02-25T00:17:40.342Z,2.35
2019-02-25T00:20:09.317Z,2.20
2019-02-25T00:22:36.673Z,2.35
2019-02-25T00:25:04.388Z,2.37
2019-02-25T00:27:31.807Z,2.39
2019-02-25T00:29:59.228Z,2.35
2019-02-25T00:32:26.868Z,2.34
2019-02-25T00:34:54.297Z,2.39
2019-02-25T00:37:21.638Z,2.26
2019-02-25T00:39:49.043Z,2.29
2019-02-25T00:42:16.398Z,2.33
2019-02-25T00:44:43.825Z,2.10
2019-02-25T00:47:11.158Z,2.04
2019-02-25T00:49:38.598Z,2.13
2019-02-25T00:52:05.971Z,2.18
2019-02-25T00:54:33.363Z,1.76
2019-02-25T00:57:00.761Z,1.62
2019-02-25T00:59:29.158Z,1.73
2019-02-25T01:01:56.543Z,1.73
2019-02-25T01:04:23.948Z,1.82
2019-02-25T01:06:51.298Z,1.66
2019-02-25T01:09:18.721Z,1.58
2019-02-25T01:11:46.099Z,1.55
2019-02-25T01:14:13.894Z,1.61
2019-02-25T01:16:41.264Z,1.54
2019-02-25T01:19:08.656Z,1.61
2019-02-25T01:21:36.163Z,1.64
2019-02-25T01:24:03.578Z,1.60
2019-02-25T01:26:30.928Z,1.60
2019-02-25T01:28:58.383Z,1.71
2019-02-25T01:31:25.773Z,1.64
2019-02-25T01:33:53.189Z,1.50
2019-02-25T01:36:20.545Z,1.41
2019-02-25T01:38:47.973Z,1.39
2019-02-25T01:41:15.318Z,1.36
2019-02-25T01:43:43.188Z,1.33
2019-02-25T01:46:10.550Z,1.35
2019-02-25T01:48:37.991Z,1.32
2019-02-25T01:51:05.358Z,1.45
2019-02-25T01:53:32.748Z,1.43
2019-02-25T01:56:00.168Z,1.45
2019-02-25T01:58:27.528Z,1.51
2019-02-25T02:00:54.958Z,1.47
2019-02-25T02:03:22.317Z,1.36
2019-02-25T02:05:50.197Z,1.31
2019-02-25T02:08:17.638Z,1.24
2019-02-25T02:10:45.044Z,1.14
2019-02-25T02:13:14.420Z,1.11
2019-02-25T02:15:41.758Z,1.13
2019-02-25T02:18:09.093Z,0.99
2019-02-25T02:20:36.547Z,1.05
2019-02-25T02:23:04.182Z,1.31
2019-02-25T02:25:31.582Z,1.36
2019-02-25T02:27:59.160Z,1.24
2019-02-25T02:30:26.562Z,1.19
2019-02-25T02:32:54.009Z,1.25
2019-02-25T02:35:21.404Z,1.21
2019-02-25T02:37:48.745Z,1.07
2019-02-25T02:40:16.186Z,0.87
2019-02-25T02:42:46.360Z,0.80
2019-02-25T02:45:23.272Z,0.84
2019-02-25T02:47:56.852Z,0.74
2019-02-25T02:50:25.557Z,0.78
2019-02-25T02:52:53.042Z,0.84
2019-02-25T02:55:20.465Z,0.78
2019-02-25T02:57:47.914Z,0.82
2019-02-25T03:00:16.600Z,0.83
2019-02-25T03:02:43.963Z,0.78
2019-02-25T03:05:12.874Z,0.43
2019-02-25T03:07:40.263Z,0.49
2019-02-25T03:10:09.287Z,0.48
2019-02-25T03:12:36.818Z,0.62
2019-02-25T03:15:05.983Z,0.37
2019-02-25T03:17:33.328Z,0.46
2019-02-25T03:20:00.737Z,0.56
2019-02-25T03:22:28.081Z,0.63
2019-02-25T03:24:55.459Z,0.29
2019-02-25T03:27:22.833Z,0.33
2019-02-25T03:29:50.280Z,0.19
2019-02-25T03:32:17.698Z,0.34
2019-02-25T03:34:45.115Z,0.38
2019-02-25T03:37:12.456Z,0.44
2019-02-25T03:39:39.848Z,0.54
2019-02-25T03:42:07.434Z,0.47
2019-02-25T03:44:35.112Z,0.51
2019-02-25T03:47:02.493Z,0.42
2019-02-25T03:49:29.956Z,0.42
2019-02-25T03:51:57.383Z,0.33
2019-02-25T03:54:25.156Z,0.45
2019-02-25T03:56:52.551Z,0.62
2019-02-25T03:59:19.921Z,0.70
2019-02-25T04:01:47.422Z,0.67
2019-02-25T04:04:14.740Z,0.72
2019-02-25T04:06:42.144Z,0.63
2019-02-25T04:09:09.531Z,0.59
2019-02-25T04:11:36.933Z,0.53
2019-02-25T04:14:04.571Z,0.46
2019-02-25T04:16:31.992Z,0.39
2019-02-25T04:18:59.401Z,0.29
2019-02-25T04:21:26.827Z,0.16
2019-02-25T04:23:54.172Z,0.08
2019-02-25T04:26:21.661Z,0.03
2019-02-25T04:28:49.059Z,0.06
2019-02-25T04:31:16.461Z,0.17
2019-02-25T04:33:43.804Z,0.40
2019-02-25T04:36:11.219Z,0.50
2019-02-25T04:38:38.546Z,0.54
2019-02-25T04:41:05.951Z,0.48
2019-02-25T04:43:33.345Z,0.32
2019-02-25T04:46:00.815Z,0.31
2019-02-25T04:48:28.182Z,0.33
2019-02-25T04:50:55.578Z,0.16
2019-02-25T04:53:23.069Z,0.13
2019-02-25T04:55:50.558Z,0.10
2019-02-25T04:58:17.894Z,0.20
2019-02-25T05:00:45.311Z,0.27
2019-02-25T05:03:12.680Z,0.27
2019-02-25T05:05:40.125Z,0.20
2019-02-25T05:08:07.567Z,0.16
2019-02-25T05:10:34.938Z,0.14
2019-02-25T05:13:03.818Z,0.06
2019-02-25T05:15:31.455Z,0.03
2019-02-25T05:17:58.946Z,-0.05
2019-02-25T05:20:26.358Z,-0.04
2019-02-25T05:22:53.758Z,0.11
2019-02-25T05:25:21.282Z,0.08
2019-02-25T05:27:48.734Z,0.05
2019-02-25T05:30:16.813Z,0.03
2019-02-25T05:32:44.643Z,-0.11
2019-02-25T05:35:12.387Z,-0.23
2019-02-25T05:37:40.300Z,-0.20
2019-02-25T05:40:10.959Z,-0.29
2019-02-25T05:42:38.478Z,-0.27
2019-02-25T05:45:06.112Z,-0.21
2019-02-25T05:47:33.659Z,-0.18
2019-02-25T05:50:01.324Z,-0.01
2019-02-25T05:52:28.924Z,0.15
2019-02-25T05:54:56.401Z,0.14
2019-02-25T05:57:23.920Z,0.08
2019-02-25T05:59:51.436Z,-0.03
2019-02-25T06:02:18.956Z,0.02
2019-02-25T06:04:46.480Z,-0.08
2019-02-25T06:07:14.049Z,0.12
2019-02-25T06:09:41.510Z,0.17
2019-02-25T06:12:09.058Z,0.28
2019-02-25T06:14:36.565Z,0.36
2019-02-25T06:17:04.087Z,0.34
2019-02-25T06:19:31.556Z,0.28
2019-02-25T06:21:59.069Z,0.18
2019-02-25T06:24:26.540Z,0.16
2019-02-25T06:26:54.183Z,-0.02
2019-02-25T06:29:21.691Z,-0.25
2019-02-25T06:31:49.228Z,-0.10
2019-02-25T06:34:16.991Z,0.05
2019-02-25T06:36:44.863Z,0.18
2019-02-25T06:39:12.332Z,0.30
2019-02-25T06:41:39.873Z,0.48
2019-02-25T06:44:07.424Z,0.57
2019-02-25T06:46:34.957Z,0.79
2019-02-25T06:49:02.440Z,0.98
2019-02-25T06:51:29.974Z,1.35
2019-02-25T06:53:57.633Z,1.32
2019-02-25T06:56:25.104Z,1.72
2019-02-25T06:58:52.642Z,2.09
2019-02-25T07:01:20.184Z,2.47
2019-02-25T07:04:07.282Z,2.79
2019-02-25T07:06:48.971Z,3.18
2019-02-25T07:09:26.560Z,3.41
2019-02-25T07:12:10.723Z,3.64
2019-02-25T07:14:47.505Z,3.93
2019-02-25T07:17:33.142Z,4.41
2019-02-25T07:20:16.554Z,4.60
2019-02-25T07:23:21.393Z,4.98
2019-02-25T07:25:59.323Z,4.06
2019-02-25T07:28:38.723Z,5.17
2019-02-25T07:31:37.479Z,5.36
2019-02-25T07:34:24.458Z,5.94
2019-02-25T07:37:01.413Z,6.36
2019-02-25T07:39:44.648Z,7.32
2019-02-25T07:42:37.648Z,7.01
2019-02-25T07:45:25.945Z,7.01
2019-02-25T07:48:07.602Z,7.77
2019-02-25T07:50:52.873Z,7.89
2019-02-25T07:53:42.593Z,8.29
2019-02-25T07:56:29.843Z,8.39
2019-02-25T07:59:12.311Z,9.19
2019-02-25T08:02:11.124Z,9.69
2019-02-25T08:04:58.053Z,9.87
2019-02-25T08:07:50.778Z,10.00
2019-02-25T08:10:30.228Z,10.37
2019-02-25T08:13:20.061Z,10.89
2019-02-25T08:16:15.643Z,10.92
2019-02-25T08:19:17.719Z,11.30
2019-02-25T08:22:23.148Z,11.67
2019-02-25T08:25:07.636Z,12.72
2019-02-25T08:27:41.488Z,12.02
2019-02-25T08:30:18.661Z,10.38
2019-02-25T08:33:01.854Z,12.09
2019-02-25T08:36:15.505Z,12.32
2019-02-25T08:38:58.771Z,11.61
2019-02-25T08:41:48.738Z,8.87
2019-02-25T08:44:44.368Z,9.02
2019-02-25T08:47:31.318Z,9.36
2019-02-25T08:50:04.448Z,8.74
2019-02-25T08:52:31.918Z,8.52
2019-02-25T08:54:59.861Z,8.45
2019-02-25T08:57:27.365Z,8.40
2019-02-25T08:59:54.933Z,8.44
2019-02-25T09:02:22.313Z,8.85
2019-02-25T09:04:49.963Z,9.08
2019-02-25T09:07:17.856Z,9.16
2019-02-25T09:09:45.433Z,9.09
2019-02-25T09:12:12.874Z,9.51
2019-02-25T09:14:40.408Z,9.44
2019-02-25T09:17:07.800Z,8.99
2019-02-25T09:19:35.353Z,9.25
2019-02-25T09:22:03.061Z,9.39
2019-02-25T09:24:30.676Z,9.77
2019-02-25T09:26:58.219Z,10.03
2019-02-25T09:29:26.013Z,10.36
2019-02-25T09:31:53.601Z,10.44
2019-02-25T09:34:21.158Z,10.41
2019-02-25T09:36:48.618Z,9.87
2019-02-25T09:39:16.834Z,9.21
2019-02-25T09:41:44.580Z,9.68
2019-02-25T09:44:11.982Z,9.59
2019-02-25T09:46:39.509Z,9.77
2019-02-25T09:49:06.953Z,10.00
2019-02-25T09:51:34.483Z,9.97
2019-02-25T09:54:01.972Z,10.05
2019-02-25T09:56:29.509Z,10.45
2019-02-25T09:58:57.094Z,10.41
2019-02-25T10:01:24.533Z,10.50
2019-02-25T10:03:52.069Z,10.46
2019-02-25T10:06:20.764Z,10.59
2019-02-25T10:08:48.211Z,10.82
2019-02-25T10:11:15.695Z,10.82
2019-02-25T10:13:43.264Z,10.97
2019-02-25T10:16:10.718Z,11.17
2019-02-25T10:18:38.152Z,11.28
2019-02-25T10:21:05.644Z,11.24
2019-02-25T10:23:33.028Z,11.22
2019-02-25T10:26:00.505Z,11.13
2019-02-25T10:28:28.418Z,11.25
2019-02-25T10:30:55.844Z,11.32
2019-02-25T10:33:23.302Z,11.16
2019-02-25T10:35:51.186Z,10.89
2019-02-25T10:38:19.565Z,11.21
2019-02-25T10:40:49.592Z,11.27
2019-02-25T10:43:17.311Z,11.28
2019-02-25T10:45:45.402Z,11.44
2019-02-25T10:48:13.078Z,11.26
2019-02-25T10:50:40.928Z,11.18
2019-02-25T10:53:10.979Z,11.14
2019-02-25T10:55:44.945Z,11.31
2019-02-25T10:58:12.623Z,11.52
2019-02-25T11:00:43.783Z,11.73
2019-02-25T11:03:13.478Z,11.70
2019-02-25T11:05:42.611Z,11.74
2019-02-25T11:08:13.897Z,11.87
2019-02-25T11:10:49.062Z,11.94
2019-02-25T11:13:17.556Z,12.16
2019-02-25T11:15:46.672Z,12.07
2019-02-25T11:18:14.643Z,12.05
2019-02-25T11:20:42.108Z,12.09
2019-02-25T11:23:10.518Z,12.31
2019-02-25T11:25:39.073Z,12.50
2019-02-25T11:28:07.602Z,12.47
2019-02-25T11:30:35.966Z,12.76
2019-02-25T11:33:03.594Z,12.94
2019-02-25T11:35:34.158Z,13.32
2019-02-25T11:38:01.958Z,14.05
2019-02-25T11:40:31.269Z,14.73
2019-02-25T11:42:58.968Z,15.02
2019-02-25T11:45:26.408Z,15.08
2019-02-25T11:47:54.198Z,15.00
2019-02-25T11:50:21.648Z,14.69
2019-02-25T11:52:49.660Z,14.71
2019-02-25T11:55:17.084Z,14.88
2019-02-25T11:57:44.732Z,15.01
2019-02-25T12:00:15.251Z,15.10
2019-02-25T12:02:43.331Z,15.27
2019-02-25T12:05:11.261Z,15.00
2019-02-25T12:07:38.732Z,14.94
2019-02-25T12:10:06.919Z,15.09
2019-02-25T12:12:34.487Z,14.85
2019-02-25T12:15:01.985Z,14.95
2019-02-25T12:17:29.451Z,14.81
2019-02-25T12:19:56.889Z,14.60
2019-02-25T12:22:24.478Z,14.59
2019-02-25T12:24:51.883Z,14.62
2019-02-25T12:27:19.432Z,14.71
2019-02-25T12:29:47.013Z,14.90
2019-02-25T12:32:14.571Z,15.06
2019-02-25T12:34:42.091Z,15.06
2019-02-25T12:37:11.531Z,15.07
2019-02-25T12:39:39.139Z,15.22
2019-02-25T12:42:06.881Z,15.32
2019-02-25T12:44:34.856Z,15.59
2019-02-25T12:47:02.311Z,15.39
2019-02-25T12:49:29.785Z,15.22
2019-02-25T12:51:57.161Z,15.31
2019-02-25T12:54:24.700Z,15.49
2019-02-25T12:56:52.158Z,15.27
2019-02-25T12:59:19.636Z,15.09
2019-02-25T13:01:47.308Z,15.17
2019-02-25T13:04:14.868Z,15.12
2019-02-25T13:06:42.390Z,15.19
2019-02-25T13:09:14.035Z,15.19
2019-02-25T13:11:41.440Z,15.25
2019-02-25T13:14:08.983Z,15.31
2019-02-25T13:16:36.484Z,15.37
2019-02-25T13:19:03.982Z,15.35
2019-02-25T13:21:31.538Z,15.39
2019-02-25T13:23:59.462Z,15.27
2019-02-25T13:26:29.265Z,15.29
2019-02-25T13:28:58.228Z,15.37
2019-02-25T13:31:25.598Z,15.51
2019-02-25T13:33:53.119Z,15.58
2019-02-25T13:36:20.484Z,15.52
2019-02-25T13:38:48.059Z,15.61
2019-02-25T13:41:15.606Z,15.59
2019-02-25T13:43:43.149Z,15.66
2019-02-25T13:46:10.622Z,15.62
2019-02-25T13:48:38.457Z,15.60
2019-02-25T13:51:05.853Z,15.64
2019-02-25T13:53:33.327Z,15.55
2019-02-25T13:56:01.005Z,15.61
2019-02-25T13:58:28.492Z,15.59
2019-02-25T14:00:55.962Z,15.54
2019-02-25T14:03:23.514Z,15.49
2019-02-25T14:05:51.029Z,15.37
2019-02-25T14:08:18.489Z,15.43
2019-02-25T14:10:46.230Z,15.38
2019-02-25T14:13:13.915Z,15.50
2019-02-25T14:15:41.574Z,15.36
2019-02-25T14:18:09.124Z,15.32
2019-02-25T14:20:40.052Z,15.43
2019-02-25T14:23:12.496Z,15.41
2019-02-25T14:25:41.518Z,15.43
2019-02-25T14:28:22.944Z,15.32
2019-02-25T14:30:51.625Z,15.32
2019-02-25T14:33:19.290Z,15.28
2019-02-25T14:35:56.077Z,15.25
2019-02-25T14:38:29.500Z,15.29
2019-02-25T14:40:57.404Z,15.28
2019-02-25T14:43:27.278Z,15.27
2019-02-25T14:45:56.805Z,15.20
2019-02-25T14:48:25.348Z,15.22
2019-02-25T14:50:53.323Z,15.31
2019-02-25T14:53:20.821Z,15.27
2019-02-25T14:55:50.340Z,15.21
2019-02-25T14:58:17.853Z,15.23
2019-02-25T15:00:45.784Z,15.21
2019-02-25T15:03:13.506Z,15.19
2019-02-25T15:05:41.604Z,15.20
2019-02-25T15:08:09.181Z,15.19
2019-02-25T15:10:38.486Z,15.17
2019-02-25T15:13:08.374Z,15.14
2019-02-25T15:15:37.055Z,15.04
2019-02-25T15:18:05.179Z,14.96
2019-02-25T15:20:32.912Z,15.01
2019-02-25T15:23:00.799Z,14.81
2019-02-25T15:25:31.168Z,14.78
2019-02-25T15:27:58.222Z,14.79
2019-02-25T15:30:30.427Z,14.82
2019-02-25T15:33:00.091Z,14.73
2019-02-25T15:35:31.358Z,14.74
2019-02-25T15:37:57.948Z,14.81
2019-02-25T15:40:27.279Z,14.75
2019-02-25T15:43:02.948Z,14.73
2019-02-25T15:45:32.915Z,14.61
2019-02-25T15:48:01.659Z,14.74
2019-02-25T15:50:29.543Z,14.67
2019-02-25T15:53:00.861Z,14.51
2019-02-25T15:55:29.676Z,14.48
2019-02-25T15:59:08.030Z,14.39
2019-02-25T16:01:35.947Z,14.35
2019-02-25T16:04:15.354Z,14.30
2019-02-25T16:06:43.219Z,14.38
2019-02-25T16:09:11.660Z,14.46
2019-02-25T16:11:41.224Z,14.36
2019-02-25T16:14:10.939Z,14.12
2019-02-25T16:16:40.277Z,13.96
2019-02-25T16:19:08.161Z,13.85
2019-02-25T16:21:43.185Z,13.73
2019-02-25T16:24:12.332Z,13.73
2019-02-25T16:26:53.702Z,13.60
2019-02-25T16:29:35.757Z,13.51
2019-02-25T16:32:35.054Z,13.40
2019-02-25T16:35:04.610Z,13.26
2019-02-25T16:37:33.407Z,13.19
2019-02-25T16:40:06.522Z,13.10
2019-02-25T16:42:34.745Z,13.02
2019-02-25T16:45:06.284Z,12.95
2019-02-25T16:47:35.576Z,12.82
2019-02-25T16:50:04.161Z,12.72
2019-02-25T16:52:32.130Z,12.64
2019-02-25T16:55:00.101Z,12.46
2019-02-25T16:57:28.168Z,12.30
2019-02-25T16:59:57.524Z,12.19
2019-02-25T17:02:30.201Z,12.11
2019-02-25T17:04:57.651Z,12.03
2019-02-25T17:07:25.658Z,11.93
2019-02-25T17:09:55.018Z,11.76
2019-02-25T17:12:25.192Z,11.68
2019-02-25T17:14:53.212Z,11.63
2019-02-25T17:17:24.850Z,11.57
2019-02-25T17:19:54.053Z,11.27
2019-02-25T17:22:22.423Z,11.02
2019-02-25T17:24:52.316Z,10.83
2019-02-25T17:27:19.869Z,10.71
2019-02-25T17:29:49.169Z,10.74
2019-02-25T17:32:19.392Z,10.61
2019-02-25T17:34:47.083Z,10.44
2019-02-25T17:37:16.604Z,10.40
2019-02-25T17:39:44.871Z,10.34
2019-02-25T17:42:13.546Z,10.16
2019-02-25T17:44:41.632Z,10.08
2019-02-25T17:47:11.097Z,9.84
2019-02-25T17:49:40.578Z,9.66
2019-02-25T17:52:09.258Z,9.51
2019-02-25T17:54:37.739Z,9.44
2019-02-25T17:57:07.602Z,9.39
2019-02-25T17:59:36.554Z,9.51
2019-02-25T18:02:06.676Z,9.41
2019-02-25T18:04:34.754Z,9.24
2019-02-25T18:07:03.152Z,9.11
2019-02-25T18:09:31.252Z,8.93
2019-02-25T18:12:00.028Z,8.81
2019-02-25T18:14:28.831Z,8.72
2019-02-25T18:16:57.413Z,8.74
2019-02-25T18:19:27.135Z,8.58
2019-02-25T18:21:58.219Z,8.50
2019-02-25T18:24:26.787Z,8.37
2019-02-25T18:26:54.876Z,8.36
2019-02-25T18:29:23.564Z,8.53
2019-02-25T18:31:52.516Z,8.49
2019-02-25T18:34:20.349Z,8.37
2019-02-25T18:36:48.964Z,8.22
2019-02-25T18:39:18.316Z,8.16
2019-02-25T18:43:16.593Z,8.16
2019-02-25T18:45:44.817Z,8.14
2019-02-25T18:48:12.986Z,7.96
2019-02-25T18:50:40.923Z,7.92
2019-02-25T18:53:09.102Z,7.88
2019-02-25T18:59:21.439Z,7.67
2019-02-25T19:18:10.629Z,7.24
2019-02-25T19:20:41.062Z,7.19
2019-02-25T19:23:10.250Z,7.16
2019-02-25T19:55:20.626Z,6.33
2019-02-25T20:10:02.169Z,5.97
2019-02-25T20:13:07.783Z,6.05
2019-02-25T20:15:37.658Z,6.05
2019-02-25T20:18:14.342Z,6.11
2019-02-25T20:31:38.631Z,5.85
2019-02-25T21:26:33.774Z,4.89
2019-02-25T21:36:01.658Z,4.64
2019-02-25T21:38:30.313Z,4.61
2019-02-25T21:40:58.676Z,4.58
2019-02-25T21:43:28.963Z,4.51
2019-02-25T21:45:56.619Z,4.50
2019-02-25T21:48:27.523Z,4.55
2019-02-25T21:50:58.067Z,4.52
2019-02-25T21:53:24.538Z,4.49
2019-02-25T21:55:53.500Z,4.44
2019-02-25T21:58:23.589Z,4.47
2019-02-25T22:00:50.831Z,4.52
2019-02-25T22:03:19.516Z,4.35
2019-02-25T22:05:49.384Z,4.35
2019-02-25T22:08:20.104Z,4.21
2019-02-25T22:11:13.030Z,4.15
2019-02-25T22:13:38.931Z,4.16
2019-02-25T22:16:08.008Z,4.18
2019-02-25T22:18:36.330Z,4.29
2019-02-25T22:21:07.163Z,4.27
2019-02-25T22:23:35.033Z,4.09
2019-02-25T22:26:02.658Z,4.11
2019-02-25T22:28:30.582Z,4.11
2019-02-25T22:30:59.559Z,4.12
2019-02-25T22:33:28.047Z,4.02
2019-02-25T22:35:56.496Z,3.96
2019-02-25T22:38:23.896Z,3.84
2019-02-25T22:40:53.157Z,3.76
2019-02-25T22:43:20.875Z,3.66
2019-02-25T22:45:48.428Z,3.66
2019-02-25T22:48:16.383Z,3.56
2019-02-25T22:50:45.141Z,3.54
2019-02-25T22:53:12.643Z,3.63
2019-02-25T22:55:42.678Z,3.62
2019-02-25T22:58:10.926Z,3.51
2019-02-25T23:00:43.517Z,3.56
2019-02-25T23:03:15.219Z,3.78
2019-02-25T23:05:43.049Z,3.89
2019-02-25T23:08:12.760Z,3.78
2019-02-25T23:10:42.010Z,3.64
2019-02-25T23:13:09.281Z,3.52
2019-02-25T23:15:36.803Z,3.43
2019-02-25T23:18:05.590Z,3.36
2019-02-25T23:20:34.043Z,3.27
2019-02-25T23:23:06.118Z,3.10
2019-02-25T23:25:31.056Z,3.22
2019-02-25T23:28:00.220Z,3.29
2019-02-25T23:30:27.838Z,3.23
2019-02-25T23:32:55.272Z,3.24
2019-02-25T23:35:23.494Z,3.25
2019-02-25T23:37:54.408Z,3.31
2019-02-25T23:40:21.298Z,3.26
2019-02-25T23:42:49.189Z,3.17
2019-02-25T23:45:18.386Z,3.20
2019-02-25T23:47:46.100Z,3.15
2019-02-25T23:50:13.846Z,2.92
2019-02-25T23:52:41.332Z,2.78
2019-02-25T23:55:12.234Z,2.81
2019-02-25T23:57:38.433Z,3.01
